createdAt,value
2023-01-21T00:14:41.967Z,34.16
2023-01-21T00:34:41.181Z,34.16
2023-01-21T00:54:41.438Z,34.16
2023-01-21T01:14:41.225Z,34.16
2023-01-21T01:34:41.973Z,34.16
2023-01-21T01:54:41.968Z,34.16
2023-01-21T02:14:41.982Z,34.16
2023-01-21T02:34:41.981Z,34.16
2023-01-21T02:54:42.002Z,34.15
2023-01-21T03:14:41.987Z,34.15
2023-01-21T03:34:41.993Z,34.15
2023-01-21T03:54:41.847Z,34.15
2023-01-21T04:14:41.998Z,34.15
2023-01-21T04:34:41.989Z,34.15
2023-01-21T04:54:41.233Z,34.15
2023-01-21T05:14:42.004Z,34.15
2023-01-21T05:34:42.008Z,34.15
2023-01-21T05:54:52.594Z,34.15
2023-01-21T06:14:42.040Z,34.14
2023-01-21T06:34:42.032Z,34.14
2023-01-21T06:54:42.032Z,34.14
2023-01-21T07:14:42.027Z,34.14
2023-01-21T07:34:42.032Z,34.13
2023-01-21T07:54:41.912Z,34.14
2023-01-21T08:14:42.037Z,34.14
2023-01-21T08:34:42.099Z,34.13
2023-01-21T08:54:42.062Z,34.13
2023-01-21T09:34:42.058Z,34.13
2023-01-21T09:54:42.058Z,34.13
2023-01-21T10:14:42.075Z,34.12
2023-01-21T10:34:42.080Z,34.12
2023-01-21T10:54:41.553Z,34.12
2023-01-21T11:14:42.066Z,34.12
2023-01-21T11:34:41.545Z,34.12
2023-01-21T11:54:41.554Z,34.12
2023-01-21T12:14:42.080Z,34.12
2023-01-21T12:34:42.102Z,34.11
2023-01-21T12:54:42.128Z,34.11
2023-01-21T13:14:41.322Z,34.11
2023-01-21T13:34:42.099Z,34.11
2023-01-21T13:54:42.096Z,34.11
2023-01-21T14:14:41.569Z,34.1
2023-01-21T14:34:42.134Z,34.1
2023-01-21T14:54:42.124Z,34.1
2023-01-21T15:14:42.095Z,34.1
2023-01-21T15:34:42.122Z,34.09
2023-01-21T15:54:42.097Z,34.09
2023-01-21T16:14:41.336Z,34.09
2023-01-21T16:34:42.127Z,34.09
2023-01-21T16:54:41.647Z,34.09
2023-01-21T17:14:42.112Z,34.08
2023-01-21T17:34:41.602Z,34.08
2023-01-21T17:54:42.135Z,34.08
2023-01-21T18:14:41.608Z,34.08
2023-01-21T18:34:42.143Z,34.08
2023-01-21T18:54:42.129Z,34.08
2023-01-21T19:34:42.129Z,34.08
2023-01-21T19:54:41.375Z,34.07
2023-01-21T20:14:42.136Z,34.07
2023-01-21T20:34:42.166Z,34.07
2023-01-21T20:54:42.156Z,34.07
2023-01-21T21:14:42.153Z,34.07
2023-01-21T21:34:41.624Z,34.07
2023-01-21T21:54:42.162Z,34.06
2023-01-21T22:14:42.036Z,34.06
2023-01-21T22:34:42.158Z,34.06
2023-01-21T22:54:42.161Z,34.06
2023-01-21T23:14:42.036Z,34.06
2023-01-21T23:34:42.137Z,34.06
2023-01-21T23:54:41.643Z,34.06
